createdAt,value
2018-03-06T00:02:21.860Z,64.50
2018-03-06T00:04:49.853Z,65.00
2018-03-06T00:07:17.860Z,65.10
2018-03-06T00:09:46.648Z,64.70
2018-03-06T00:12:14.640Z,64.60
2018-03-06T00:14:43.419Z,65.30
2018-03-06T00:17:11.441Z,64.90
2018-03-06T00:19:40.221Z,65.40
2018-03-06T00:22:09.737Z,68.40
2018-03-06T00:24:37.760Z,68.40
2018-03-06T00:27:05.748Z,69.00
2018-03-06T00:29:33.772Z,67.90
2018-03-06T00:32:01.776Z,67.10
2018-03-06T00:34:30.568Z,67.60
2018-03-06T00:36:58.652Z,67.50
2018-03-06T00:39:27.441Z,68.50
2018-03-06T00:41:55.466Z,67.70
2018-03-06T00:44:24.282Z,67.30
2018-03-06T00:46:52.245Z,67.30
2018-03-06T00:49:21.016Z,68.00
2018-03-06T00:51:49.020Z,67.90
2018-03-06T00:54:17.800Z,68.60
2018-03-06T00:56:45.796Z,68.50
2018-03-06T00:59:14.571Z,68.70
2018-03-06T01:01:45.686Z,68.60
2018-03-06T01:04:17.464Z,69.30
2018-03-06T01:06:47.045Z,70.00
2018-03-06T01:09:15.816Z,70.70
2018-03-06T01:11:43.829Z,70.60
2018-03-06T01:14:12.602Z,71.50
2018-03-06T01:16:40.613Z,71.50
2018-03-06T01:19:09.407Z,73.50
2018-03-06T01:21:37.409Z,73.40
2018-03-06T01:24:06.204Z,74.60
2018-03-06T01:26:34.971Z,74.70
2018-03-06T01:29:02.974Z,74.60
2018-03-06T01:31:30.982Z,74.10
2018-03-06T01:33:58.992Z,74.80
2018-03-06T01:36:26.985Z,75.30
2018-03-06T01:38:54.989Z,74.70
2018-03-06T01:41:23.006Z,73.50
2018-03-06T01:43:51.764Z,73.50
2018-03-06T01:46:19.765Z,73.40
2018-03-06T01:48:47.776Z,73.50
2018-03-06T01:51:15.776Z,73.00
2018-03-06T01:53:43.781Z,73.40
2018-03-06T01:56:11.788Z,73.30
2018-03-06T01:58:39.803Z,74.50
2018-03-06T02:01:08.587Z,75.70
2018-03-06T02:03:37.364Z,75.70
2018-03-06T02:06:05.369Z,75.60
2018-03-06T02:08:34.256Z,76.40
2018-03-06T02:11:02.263Z,76.30
2018-03-06T02:13:31.023Z,75.90
2018-03-06T02:15:59.035Z,75.90
2018-03-06T02:18:27.053Z,75.90
2018-03-06T02:20:55.053Z,75.30
2018-03-06T02:23:23.063Z,74.80
2018-03-06T02:25:51.075Z,74.60
2018-03-06T02:28:19.834Z,75.80
2018-03-06T02:30:47.843Z,75.20
2018-03-06T02:33:15.856Z,75.50
2018-03-06T02:35:44.708Z,74.90
2018-03-06T02:38:12.725Z,74.80
2018-03-06T02:40:41.515Z,76.10
2018-03-06T02:43:09.532Z,75.40
2018-03-06T02:45:37.548Z,75.00
2018-03-06T02:48:05.554Z,74.50
2018-03-06T02:50:33.544Z,74.60
2018-03-06T02:53:01.557Z,73.90
2018-03-06T02:55:29.573Z,74.40
2018-03-06T02:57:57.569Z,74.70
2018-03-06T03:00:25.571Z,74.50
2018-03-06T03:02:53.585Z,74.40
2018-03-06T03:05:22.347Z,74.90
2018-03-06T03:07:51.864Z,75.50
2018-03-06T03:10:19.880Z,75.40
2018-03-06T03:12:48.642Z,75.00
2018-03-06T03:15:16.649Z,75.00
2018-03-06T03:17:44.656Z,75.50
2018-03-06T03:20:13.424Z,76.20
2018-03-06T03:22:41.454Z,76.20
2018-03-06T03:25:09.462Z,75.90
2018-03-06T03:27:37.464Z,76.00
2018-03-06T03:30:05.485Z,76.60
2018-03-06T03:32:34.260Z,76.80
2018-03-06T03:35:02.279Z,76.60
2018-03-06T03:37:31.053Z,77.40
2018-03-06T03:39:59.836Z,77.70
2018-03-06T03:42:27.840Z,77.40
2018-03-06T03:44:56.615Z,78.10
2018-03-06T03:47:24.637Z,77.90
2018-03-06T03:49:53.490Z,77.50
2018-03-06T03:52:21.504Z,77.40
2018-03-06T03:54:49.517Z,76.60
2018-03-06T03:57:17.532Z,76.40
2018-03-06T03:59:45.535Z,76.70
2018-03-06T04:02:13.548Z,77.20
2018-03-06T04:04:42.319Z,78.10
2018-03-06T04:07:10.353Z,78.00
2018-03-06T04:09:38.369Z,78.10
2018-03-06T04:12:06.374Z,77.90
2018-03-06T04:14:34.389Z,77.50
2018-03-06T04:17:02.406Z,77.40
2018-03-06T04:19:30.409Z,77.40
2018-03-06T04:21:58.416Z,77.60
2018-03-06T04:24:27.201Z,78.40
2018-03-06T04:26:55.200Z,78.40
2018-03-06T04:29:23.993Z,78.20
2018-03-06T04:31:52.004Z,77.90
2018-03-06T04:34:20.764Z,78.00
2018-03-06T04:36:48.783Z,78.00
2018-03-06T04:39:17.561Z,78.30
2018-03-06T04:41:45.600Z,78.20
2018-03-06T04:44:13.609Z,78.20
2018-03-06T04:46:41.628Z,78.00
2018-03-06T04:49:10.407Z,78.40
2018-03-06T04:51:38.420Z,78.30
2018-03-06T04:54:06.449Z,79.00
2018-03-06T04:56:34.458Z,79.80
2018-03-06T04:59:02.466Z,80.70
2018-03-06T05:01:31.249Z,81.00
2018-03-06T05:03:59.244Z,80.90
2018-03-06T05:06:28.020Z,81.00
2018-03-06T05:08:56.044Z,81.00
2018-03-06T05:11:24.045Z,80.50
2018-03-06T05:13:52.064Z,79.80
2018-03-06T05:16:20.072Z,78.90
2018-03-06T05:18:48.832Z,79.20
2018-03-06T05:21:16.836Z,79.10
2018-03-06T05:23:44.848Z,79.30
2018-03-06T05:26:13.619Z,79.60
2018-03-06T05:28:41.641Z,79.60
2018-03-06T05:31:09.668Z,79.50
2018-03-06T05:33:37.677Z,79.60
2018-03-06T05:36:05.692Z,79.50
2018-03-06T05:38:33.705Z,79.30
2018-03-06T05:41:01.701Z,79.00
2018-03-06T05:43:30.516Z,79.00
2018-03-06T05:45:58.532Z,79.00
2018-03-06T05:48:27.302Z,79.30
2018-03-06T05:50:55.312Z,79.20
2018-03-06T05:53:24.109Z,80.30
2018-03-06T05:55:52.878Z,80.50
2018-03-06T05:58:21.868Z,80.40
2018-03-06T06:00:50.877Z,80.60
2018-03-06T06:03:18.943Z,80.60
2018-03-06T06:05:46.940Z,81.80
2018-03-06T06:08:15.897Z,81.80
2018-03-06T06:10:44.665Z,80.60
2018-03-06T06:13:14.193Z,80.80
2018-03-06T06:15:42.217Z,80.70
2018-03-06T06:18:10.237Z,81.70
2018-03-06T06:20:38.260Z,81.90
2018-03-06T06:23:07.056Z,82.50
2018-03-06T06:25:35.813Z,82.30
2018-03-06T06:28:03.823Z,82.00
2018-03-06T06:30:31.832Z,80.80
2018-03-06T06:33:00.592Z,81.40
2018-03-06T06:35:28.600Z,81.40
2018-03-06T06:37:57.380Z,81.10
2018-03-06T06:40:25.388Z,80.40
2018-03-06T06:42:54.169Z,82.30
2018-03-06T06:45:22.177Z,82.20
2018-03-06T06:47:50.940Z,83.70
2018-03-06T06:50:18.952Z,83.50
2018-03-06T06:52:46.968Z,83.90
2018-03-06T06:55:14.957Z,83.60
2018-03-06T06:57:42.963Z,83.00
2018-03-06T07:00:10.980Z,83.70
2018-03-06T07:02:38.989Z,83.90
2018-03-06T07:05:07.000Z,83.40
2018-03-06T07:07:35.041Z,83.70
2018-03-06T07:10:03.831Z,82.10
2018-03-06T07:12:31.832Z,82.00
2018-03-06T07:14:59.848Z,81.90
2018-03-06T07:17:27.851Z,81.00
2018-03-06T07:19:55.853Z,79.20
2018-03-06T07:22:23.848Z,78.30
2018-03-06T07:24:52.636Z,78.60
2018-03-06T07:27:20.650Z,77.80
2018-03-06T07:29:49.421Z,78.30
2018-03-06T07:32:17.428Z,78.20
2018-03-06T07:34:46.200Z,77.20
2018-03-06T07:37:14.200Z,77.10
2018-03-06T07:39:42.978Z,75.50
2018-03-06T07:42:10.998Z,75.10
2018-03-06T07:44:39.764Z,74.20
2018-03-06T07:47:07.777Z,74.20
2018-03-06T07:49:36.563Z,76.10
2018-03-06T07:52:04.559Z,76.10
2018-03-06T07:54:33.332Z,76.10
2018-03-06T07:57:01.340Z,75.90
2018-03-06T07:59:30.111Z,74.30
2018-03-06T08:01:58.115Z,74.30
2018-03-06T08:04:26.892Z,75.50
2018-03-06T08:06:54.897Z,75.00
2018-03-06T08:09:22.911Z,74.60
2018-03-06T08:11:50.912Z,74.00
2018-03-06T08:14:18.915Z,74.40
2018-03-06T08:16:46.925Z,74.20
2018-03-06T08:19:14.928Z,74.50
2018-03-06T08:21:44.087Z,73.40
2018-03-06T08:24:12.097Z,73.30
2018-03-06T08:26:41.629Z,72.60
2018-03-06T08:29:09.640Z,72.60
2018-03-06T08:31:37.685Z,72.20
2018-03-06T08:34:05.692Z,73.40
2018-03-06T08:36:33.688Z,72.40
2018-03-06T08:39:01.712Z,72.70
2018-03-06T08:41:29.717Z,73.40
2018-03-06T08:43:57.720Z,73.70
2018-03-06T08:46:26.493Z,72.30
2018-03-06T08:48:54.508Z,72.30
2018-03-06T08:51:23.261Z,71.30
2018-03-06T08:53:51.268Z,71.20
2018-03-06T08:56:20.052Z,73.50
2018-03-06T08:58:48.040Z,72.80
2018-03-06T09:01:16.053Z,72.00
2018-03-06T09:03:44.819Z,69.00
2018-03-06T09:06:12.833Z,69.00
2018-03-06T09:08:41.616Z,66.50
2018-03-06T09:11:09.624Z,66.30
2018-03-06T09:13:37.616Z,69.00
2018-03-06T09:16:05.624Z,70.80
2018-03-06T09:18:33.633Z,67.50
2018-03-06T09:21:01.642Z,67.10
2018-03-06T09:23:30.441Z,66.50
2018-03-06T09:25:59.218Z,66.80
2018-03-06T09:28:27.216Z,66.60
2018-03-06T09:30:55.219Z,65.20
2018-03-06T09:33:23.237Z,66.80
2018-03-06T09:35:51.239Z,66.90
2018-03-06T09:38:19.245Z,65.00
2018-03-06T09:40:47.257Z,62.80
2018-03-06T09:43:15.258Z,63.00
2018-03-06T09:45:43.277Z,63.90
2018-03-06T09:48:11.284Z,65.30
2018-03-06T09:50:39.281Z,64.90
2018-03-06T09:53:08.060Z,63.20
2018-03-06T09:55:36.072Z,63.10
2018-03-06T09:58:04.077Z,62.20
2018-03-06T10:00:32.088Z,62.70
2018-03-06T10:03:00.103Z,62.00
2018-03-06T10:05:28.868Z,62.30
2018-03-06T10:07:56.878Z,62.20
2018-03-06T10:10:24.888Z,61.30
2018-03-06T10:12:52.880Z,62.40
2018-03-06T10:15:20.892Z,60.50
2018-03-06T10:17:48.900Z,60.70
2018-03-06T10:20:18.403Z,60.60
2018-03-06T10:22:46.412Z,60.50
2018-03-06T10:25:15.187Z,60.50
2018-03-06T10:27:43.184Z,60.40
2018-03-06T10:30:11.198Z,59.30
2018-03-06T10:32:39.208Z,59.50
2018-03-06T10:35:07.212Z,59.20
2018-03-06T10:37:35.229Z,58.40
2018-03-06T10:40:04.005Z,59.00
2018-03-06T10:42:32.009Z,59.00
2018-03-06T10:45:00.796Z,58.30
2018-03-06T10:47:28.812Z,58.30
2018-03-06T10:49:56.812Z,58.50
2018-03-06T10:52:24.828Z,58.80
2018-03-06T10:54:52.836Z,58.30
2018-03-06T10:57:20.828Z,57.20
2018-03-06T10:59:49.610Z,57.60
2018-03-06T11:02:17.627Z,57.60
2018-03-06T11:04:46.388Z,58.70
2018-03-06T11:07:14.396Z,58.50
2018-03-06T11:09:43.175Z,58.10
2018-03-06T11:12:11.173Z,57.90
2018-03-06T11:14:39.195Z,57.40
2018-03-06T11:17:07.213Z,58.60
2018-03-06T11:19:35.212Z,57.50
2018-03-06T11:22:03.213Z,57.10
2018-03-06T11:24:31.988Z,58.40
2018-03-06T11:26:59.991Z,58.30
2018-03-06T11:29:28.760Z,59.20
2018-03-06T11:31:56.764Z,58.30
2018-03-06T11:34:25.529Z,57.40
2018-03-06T11:36:53.545Z,57.40
2018-03-06T11:39:21.561Z,56.90
2018-03-06T11:41:49.558Z,56.30
2018-03-06T11:44:17.576Z,59.20
2018-03-06T11:46:45.583Z,58.40
2018-03-06T11:49:14.345Z,59.20
2018-03-06T11:51:42.354Z,58.50
2018-03-06T11:54:10.439Z,58.50
2018-03-06T11:56:38.441Z,56.20
2018-03-06T11:59:07.232Z,57.60
2018-03-06T12:01:35.241Z,57.60
2018-03-06T12:04:03.236Z,58.00
2018-03-06T12:06:31.253Z,57.20
2018-03-06T12:08:59.261Z,56.70
2018-03-06T12:11:27.256Z,57.90
2018-03-06T12:13:56.029Z,57.70
2018-03-06T12:16:24.041Z,57.70
2018-03-06T12:18:52.799Z,56.50
2018-03-06T12:21:21.567Z,58.30
2018-03-06T12:23:49.577Z,58.10
2018-03-06T12:26:17.567Z,58.20
2018-03-06T12:28:45.581Z,58.70
2018-03-06T12:31:14.351Z,58.60
2018-03-06T12:33:42.399Z,58.60
2018-03-06T12:36:10.405Z,58.60
2018-03-06T12:38:38.420Z,58.60
2018-03-06T12:41:06.416Z,58.70
2018-03-06T12:43:35.201Z,58.70
2018-03-06T12:46:03.224Z,58.70
2018-03-06T12:48:31.977Z,58.60
2018-03-06T12:50:59.977Z,58.60
2018-03-06T12:53:28.748Z,59.20
2018-03-06T12:55:56.748Z,59.10
2018-03-06T12:58:26.261Z,60.90
2018-03-06T13:00:54.268Z,61.00
2018-03-06T13:03:23.028Z,63.30
2018-03-06T13:05:51.032Z,63.20
2018-03-06T13:08:19.049Z,63.00
2018-03-06T13:10:47.817Z,64.30
2018-03-06T13:13:15.824Z,64.30
2018-03-06T13:15:44.605Z,67.30
2018-03-06T13:18:14.105Z,67.40
2018-03-06T13:20:42.120Z,67.30
2018-03-06T13:23:10.916Z,67.50
2018-03-06T13:25:38.925Z,67.50
2018-03-06T13:28:06.932Z,68.50
2018-03-06T13:30:34.936Z,69.70
2018-03-06T13:33:02.932Z,71.80
2018-03-06T13:35:30.937Z,73.80
2018-03-06T13:37:59.717Z,77.00
2018-03-06T13:40:27.721Z,76.80
2018-03-06T13:42:56.505Z,78.60
2018-03-06T13:45:24.542Z,78.50
2018-03-06T13:47:52.537Z,79.10
2018-03-06T13:50:20.553Z,79.20
2018-03-06T13:52:48.562Z,80.60
2018-03-06T13:55:17.320Z,84.40
2018-03-06T13:57:45.324Z,84.20
2018-03-06T14:00:13.331Z,84.30
2018-03-06T14:02:42.096Z,85.80
2018-03-06T14:05:10.120Z,85.80
2018-03-06T14:07:38.186Z,86.70
2018-03-06T14:10:06.124Z,86.50
2018-03-06T14:12:34.132Z,85.40
2018-03-06T14:15:02.145Z,84.70
2018-03-06T14:17:30.905Z,86.10
2018-03-06T14:19:58.908Z,86.10
2018-03-06T14:22:26.912Z,88.50
2018-03-06T14:24:55.677Z,88.30
2018-03-06T14:27:23.684Z,88.20
2018-03-06T14:29:52.456Z,87.30
2018-03-06T14:32:20.476Z,87.30
2018-03-06T14:34:48.456Z,87.20
2018-03-06T14:37:17.232Z,88.20
2018-03-06T14:39:45.228Z,88.10
2018-03-06T14:42:14.000Z,88.20
2018-03-06T14:44:42.017Z,88.60
2018-03-06T14:47:10.772Z,88.30
2018-03-06T14:49:38.788Z,88.20
2018-03-06T14:52:06.801Z,90.00
2018-03-06T14:54:34.825Z,88.20
2018-03-06T14:57:02.824Z,88.20
2018-03-06T14:59:30.866Z,88.60
2018-03-06T15:01:58.872Z,88.90
2018-03-06T15:04:26.880Z,88.70
2018-03-06T15:06:54.899Z,88.50
2018-03-06T15:09:23.648Z,87.40
2018-03-06T15:11:51.787Z,87.30
2018-03-06T15:14:19.796Z,87.00
2018-03-06T15:16:47.794Z,87.20
2018-03-06T15:19:15.801Z,86.80
2018-03-06T15:21:43.833Z,87.10
2018-03-06T15:24:12.563Z,86.80
2018-03-06T15:26:40.581Z,86.60
2018-03-06T15:29:09.364Z,88.10
2018-03-06T15:31:37.367Z,88.00
2018-03-06T15:34:06.142Z,89.40
2018-03-06T15:36:34.144Z,89.40
2018-03-06T15:39:02.903Z,94.10
2018-03-06T15:41:30.925Z,94.10
2018-03-06T15:43:58.937Z,88.30
2018-03-06T15:46:26.924Z,86.90
2018-03-06T15:48:54.937Z,86.70
2018-03-06T15:51:22.945Z,85.90
2018-03-06T15:53:50.932Z,86.40
2018-03-06T15:56:18.942Z,87.10
2018-03-06T15:58:47.712Z,88.90
2018-03-06T16:01:15.709Z,88.80
2018-03-06T16:03:43.711Z,88.50
2018-03-06T16:06:11.769Z,88.10
2018-03-06T16:08:39.773Z,87.70
2018-03-06T16:11:07.821Z,88.70
2018-03-06T16:13:35.829Z,88.80
2018-03-06T16:16:04.597Z,89.30
2018-03-06T16:18:32.605Z,89.20
2018-03-06T16:21:01.380Z,89.60
2018-03-06T16:23:29.367Z,89.50
2018-03-06T16:25:57.368Z,90.10
2018-03-06T16:28:26.140Z,91.40
2018-03-06T16:30:54.135Z,91.20
2018-03-06T16:33:22.144Z,91.70
2018-03-06T16:35:50.919Z,91.80
2018-03-06T16:38:18.916Z,91.80
2018-03-06T16:40:46.929Z,92.30
2018-03-06T16:43:14.937Z,92.40
2018-03-06T16:45:42.937Z,92.20
2018-03-06T16:48:10.949Z,92.40
2018-03-06T16:50:39.753Z,92.70
2018-03-06T16:53:07.742Z,92.70
2018-03-06T16:55:35.744Z,92.60
2018-03-06T16:58:03.748Z,92.50
2018-03-06T17:00:31.744Z,92.50
2018-03-06T17:02:59.752Z,92.40
2018-03-06T17:05:27.761Z,92.50
2018-03-06T17:07:56.516Z,92.70
2018-03-06T17:10:24.532Z,93.00
2018-03-06T17:12:52.537Z,93.00
2018-03-06T17:15:20.528Z,93.30
2018-03-06T17:17:48.541Z,93.50
2018-03-06T17:20:16.550Z,93.70
2018-03-06T17:22:44.535Z,93.70
2018-03-06T17:25:12.548Z,93.90
2018-03-06T17:27:40.564Z,94.10
2018-03-06T17:30:08.560Z,94.00
2018-03-06T17:32:36.573Z,94.10
2018-03-06T17:35:05.348Z,94.30
2018-03-06T17:37:33.345Z,94.20
2018-03-06T17:40:01.354Z,94.00
2018-03-06T17:42:30.127Z,94.30
2018-03-06T17:44:58.124Z,94.20
2018-03-06T17:47:26.902Z,94.50
2018-03-06T17:49:54.908Z,94.50
2018-03-06T17:52:23.714Z,94.60
2018-03-06T17:54:51.688Z,94.60
2018-03-06T17:57:19.698Z,94.60
2018-03-06T17:59:47.697Z,94.90
2018-03-06T18:02:15.701Z,94.90
2018-03-06T18:04:43.709Z,94.90
2018-03-06T18:07:11.723Z,94.90
2018-03-06T18:09:40.509Z,94.90
2018-03-06T18:12:08.573Z,94.90
2018-03-06T18:14:36.621Z,94.90
2018-03-06T18:17:04.616Z,95.00
2018-03-06T18:19:32.615Z,94.90
2018-03-06T18:22:00.618Z,94.90
2018-03-06T18:24:28.620Z,94.90
2018-03-06T18:26:57.392Z,94.90
2018-03-06T18:29:25.393Z,94.90
2018-03-06T18:31:54.162Z,95.40
2018-03-06T18:34:22.164Z,95.40
2018-03-06T18:36:50.239Z,95.00
2018-03-06T18:39:18.204Z,95.10
2018-03-06T18:41:46.214Z,94.90
2018-03-06T18:44:14.212Z,94.90
2018-03-06T18:46:42.987Z,94.90
2018-03-06T18:49:11.055Z,94.90
2018-03-06T18:51:39.007Z,95.20
2018-03-06T18:54:07.017Z,94.90
2018-03-06T18:56:35.027Z,94.90
2018-03-06T18:59:03.030Z,94.90
2018-03-06T19:01:57.445Z,95.10
2018-03-06T19:04:37.360Z,95.00
2018-03-06T19:07:07.305Z,94.90
2018-03-06T19:09:35.309Z,95.10
2018-03-06T19:12:03.309Z,95.10
2018-03-06T19:14:31.340Z,95.10
2018-03-06T19:16:59.349Z,95.30
2018-03-06T19:19:28.108Z,95.50
2018-03-06T19:21:56.112Z,95.50
2018-03-06T19:24:24.121Z,95.40
2018-03-06T19:26:52.884Z,95.10
2018-03-06T19:29:20.884Z,95.10
2018-03-06T19:31:48.897Z,95.30
2018-03-06T19:34:16.885Z,95.50
2018-03-06T19:36:44.896Z,95.60
2018-03-06T19:39:12.896Z,95.50
2018-03-06T19:41:40.892Z,95.50
2018-03-06T19:44:09.680Z,95.50
2018-03-06T19:46:37.718Z,95.40
2018-03-06T19:49:05.713Z,95.40
2018-03-06T19:51:33.724Z,95.40
2018-03-06T19:54:01.733Z,95.60
2018-03-06T19:56:29.721Z,95.60
2018-03-06T19:58:58.492Z,95.90
2018-03-06T20:01:26.509Z,95.80
2018-03-06T20:03:54.492Z,96.30
2018-03-06T20:06:23.264Z,96.30
2018-03-06T20:08:51.268Z,96.30
2018-03-06T20:11:20.029Z,96.20
2018-03-06T20:13:48.028Z,96.20
2018-03-06T20:16:16.036Z,96.10
2018-03-06T20:18:44.795Z,96.10
2018-03-06T20:21:12.805Z,96.10
2018-03-06T20:23:40.813Z,96.20
2018-03-06T20:26:09.572Z,96.50
2018-03-06T20:28:37.596Z,96.40
2018-03-06T20:31:11.244Z,96.40
2018-03-06T20:33:39.254Z,96.40
2018-03-06T20:36:07.276Z,96.40
2018-03-06T20:38:41.672Z,96.30
2018-03-06T20:41:09.680Z,96.30
2018-03-06T20:43:38.435Z,96.00
2018-03-06T20:46:12.041Z,95.90
2018-03-06T20:48:40.040Z,96.10
2018-03-06T20:51:08.037Z,96.10
2018-03-06T20:53:41.739Z,96.10
2018-03-06T20:56:09.753Z,96.10
2018-03-06T20:58:37.748Z,95.90
2018-03-06T21:01:06.520Z,95.90
2018-03-06T21:03:34.528Z,95.90
2018-03-06T21:06:03.292Z,96.30
2018-03-06T21:08:31.306Z,96.30
2018-03-06T21:10:59.312Z,96.40
2018-03-06T21:13:27.304Z,96.40
2018-03-06T21:15:55.316Z,96.30
2018-03-06T21:18:23.316Z,96.30
2018-03-06T21:20:51.308Z,96.30
2018-03-06T21:23:19.313Z,96.20
2018-03-06T21:25:48.088Z,96.20
2018-03-06T21:28:16.092Z,96.20
2018-03-06T21:30:44.107Z,96.20
2018-03-06T21:33:12.111Z,96.10
2018-03-06T21:35:40.100Z,96.20
2018-03-06T21:38:08.109Z,96.10
2018-03-06T21:40:36.162Z,96.10
2018-03-06T21:43:04.878Z,96.20
2018-03-06T21:45:32.889Z,96.10
2018-03-06T21:48:01.688Z,96.20
2018-03-06T21:50:30.441Z,96.40
2018-03-06T21:52:58.449Z,96.30
2018-03-06T21:55:26.452Z,96.30
2018-03-06T21:57:55.218Z,95.90
2018-03-06T22:00:23.220Z,95.80
2018-03-06T22:02:51.231Z,95.90
2018-03-06T22:05:19.993Z,95.90
2018-03-06T22:07:47.997Z,95.90
2018-03-06T22:10:16.777Z,95.60
2018-03-06T22:12:44.769Z,95.60
2018-03-06T22:15:12.772Z,95.40
2018-03-06T22:17:41.544Z,95.40
2018-03-06T22:20:09.538Z,95.40
2018-03-06T22:22:37.545Z,95.70
2018-03-06T22:25:06.316Z,95.80
2018-03-06T22:27:34.316Z,95.80
2018-03-06T22:30:03.085Z,95.50
2018-03-06T22:32:31.094Z,95.30
2018-03-06T22:34:59.084Z,95.30
2018-03-06T22:37:27.872Z,95.30
2018-03-06T22:39:55.877Z,95.00
2018-03-06T22:42:24.636Z,95.40
2018-03-06T22:44:52.641Z,95.30
2018-03-06T22:47:20.648Z,95.80
2018-03-06T22:49:48.640Z,96.30
2018-03-06T22:52:16.645Z,96.10
2018-03-06T22:54:44.656Z,96.00
2018-03-06T22:57:12.649Z,95.90
2018-03-06T22:59:40.656Z,95.90
2018-03-06T23:02:09.428Z,96.10
2018-03-06T23:04:37.430Z,96.00
2018-03-06T23:07:05.436Z,96.10
2018-03-06T23:09:33.555Z,96.10
2018-03-06T23:12:01.552Z,96.10
2018-03-06T23:14:29.565Z,95.90
2018-03-06T23:16:58.337Z,96.00
2018-03-06T23:19:26.328Z,95.90
2018-03-06T23:21:54.344Z,96.10
2018-03-06T23:24:22.341Z,95.90
2018-03-06T23:26:50.352Z,95.70
2018-03-06T23:29:18.368Z,95.90
2018-03-06T23:31:46.375Z,95.90
2018-03-06T23:34:15.140Z,96.10
2018-03-06T23:36:43.912Z,96.20
2018-03-06T23:39:11.920Z,96.20
2018-03-06T23:41:39.913Z,96.40
2018-03-06T23:44:07.921Z,96.60
2018-03-06T23:46:36.680Z,96.60
2018-03-06T23:49:04.688Z,96.50
2018-03-06T23:51:33.445Z,96.90
2018-03-06T23:54:01.456Z,96.70
2018-03-06T23:56:29.483Z,96.70
2018-03-06T23:58:58.216Z,96.80
